sensor_id;sensor_type;location;lat;lon;timestamp;P1;durP1;ratioP1;P2;durP2;ratioP2
19951;SDS011;10137;49.406;19.484;2023-09-18T00:00:04;8.70;;;5.27;;
19951;SDS011;10137;49.406;19.484;2023-09-18T00:02:35;6.63;;;5.30;;
19951;SDS011;10137;49.406;19.484;2023-09-18T00:05:05;6.13;;;5.00;;
19951;SDS011;10137;49.406;19.484;2023-09-18T00:07:33;6.97;;;5.43;;
19951;SDS011;10137;49.406;19.484;2023-09-18T00:10:03;8.93;;;5.10;;
19951;SDS011;10137;49.406;19.484;2023-09-18T00:12:32;9.03;;;5.30;;
19951;SDS011;10137;49.406;19.484;2023-09-18T00:15:00;8.13;;;5.23;;
19951;SDS011;10137;49.406;19.484;2023-09-18T00:17:28;8.70;;;5.40;;
19951;SDS011;10137;49.406;19.484;2023-09-18T00:19:58;10.00;;;5.10;;
19951;SDS011;10137;49.406;19.484;2023-09-18T00:22:26;7.00;;;4.93;;
19951;SDS011;10137;49.406;19.484;2023-09-18T00:24:54;6.83;;;5.07;;
19951;SDS011;10137;49.406;19.484;2023-09-18T00:27:24;6.67;;;4.80;;
19951;SDS011;10137;49.406;19.484;2023-09-18T00:29:52;6.77;;;5.07;;
19951;SDS011;10137;49.406;19.484;2023-09-18T00:32:22;7.33;;;5.47;;
19951;SDS011;10137;49.406;19.484;2023-09-18T00:34:51;8.27;;;5.37;;
19951;SDS011;10137;49.406;19.484;2023-09-18T00:37:19;6.87;;;5.20;;
19951;SDS011;10137;49.406;19.484;2023-09-18T00:39:49;8.30;;;4.83;;
19951;SDS011;10137;49.406;19.484;2023-09-18T00:42:17;5.93;;;4.93;;
19951;SDS011;10137;49.406;19.484;2023-09-18T00:44:50;10.70;;;5.20;;
19951;SDS011;10137;49.406;19.484;2023-09-18T00:47:17;9.67;;;5.07;;
19951;SDS011;10137;49.406;19.484;2023-09-18T00:49:47;7.00;;;5.27;;
19951;SDS011;10137;49.406;19.484;2023-09-18T00:52:17;7.33;;;5.53;;
19951;SDS011;10137;49.406;19.484;2023-09-18T00:54:48;6.83;;;4.93;;
19951;SDS011;10137;49.406;19.484;2023-09-18T00:57:18;8.50;;;4.97;;
19951;SDS011;10137;49.406;19.484;2023-09-18T00:59:47;6.23;;;4.80;;
19951;SDS011;10137;49.406;19.484;2023-09-18T01:02:16;8.97;;;5.10;;
19951;SDS011;10137;49.406;19.484;2023-09-18T01:04:47;5.67;;;4.83;;
19951;SDS011;10137;49.406;19.484;2023-09-18T01:07:16;6.47;;;5.37;;
19951;SDS011;10137;49.406;19.484;2023-09-18T01:09:44;9.13;;;5.07;;
19951;SDS011;10137;49.406;19.484;2023-09-18T01:12:14;9.67;;;5.30;;
19951;SDS011;10137;49.406;19.484;2023-09-18T01:14:49;10.30;;;5.50;;
19951;SDS011;10137;49.406;19.484;2023-09-18T01:17:29;7.80;;;5.27;;
19951;SDS011;10137;49.406;19.484;2023-09-18T01:19:58;7.47;;;5.27;;
19951;SDS011;10137;49.406;19.484;2023-09-18T01:22:30;6.63;;;5.13;;
19951;SDS011;10137;49.406;19.484;2023-09-18T01:24:58;7.97;;;5.30;;
19951;SDS011;10137;49.406;19.484;2023-09-18T01:27:26;6.27;;;4.77;;
19951;SDS011;10137;49.406;19.484;2023-09-18T01:29:54;9.27;;;5.27;;
19951;SDS011;10137;49.406;19.484;2023-09-18T01:32:23;8.03;;;5.00;;
19951;SDS011;10137;49.406;19.484;2023-09-18T01:34:54;8.30;;;5.40;;
19951;SDS011;10137;49.406;19.484;2023-09-18T01:37:25;5.93;;;5.10;;
19951;SDS011;10137;49.406;19.484;2023-09-18T01:39:59;7.50;;;5.47;;
19951;SDS011;10137;49.406;19.484;2023-09-18T01:42:27;9.67;;;5.97;;
19951;SDS011;10137;49.406;19.484;2023-09-18T01:44:55;7.10;;;5.37;;
19951;SDS011;10137;49.406;19.484;2023-09-18T01:47:24;8.70;;;5.97;;
19951;SDS011;10137;49.406;19.484;2023-09-18T01:49:53;9.57;;;6.10;;
19951;SDS011;10137;49.406;19.484;2023-09-18T01:52:21;7.97;;;5.57;;
19951;SDS011;10137;49.406;19.484;2023-09-18T01:54:50;9.37;;;5.73;;
19951;SDS011;10137;49.406;19.484;2023-09-18T01:57:20;7.37;;;5.80;;
19951;SDS011;10137;49.406;19.484;2023-09-18T01:59:50;6.10;;;5.03;;
19951;SDS011;10137;49.406;19.484;2023-09-18T02:02:18;9.67;;;6.07;;
19951;SDS011;10137;49.406;19.484;2023-09-18T02:04:47;6.73;;;5.27;;
19951;SDS011;10137;49.406;19.484;2023-09-18T02:07:17;7.57;;;5.00;;
19951;SDS011;10137;49.406;19.484;2023-09-18T02:09:49;8.10;;;5.33;;
19951;SDS011;10137;49.406;19.484;2023-09-18T02:12:21;8.63;;;4.97;;
19951;SDS011;10137;49.406;19.484;2023-09-18T02:14:49;12.30;;;5.53;;
19951;SDS011;10137;49.406;19.484;2023-09-18T02:17:17;9.33;;;5.37;;
19951;SDS011;10137;49.406;19.484;2023-09-18T02:19:46;9.27;;;5.40;;
19951;SDS011;10137;49.406;19.484;2023-09-18T02:22:14;8.63;;;5.13;;
19951;SDS011;10137;49.406;19.484;2023-09-18T02:24:42;9.40;;;6.03;;
19951;SDS011;10137;49.406;19.484;2023-09-18T02:27:10;6.67;;;5.00;;
19951;SDS011;10137;49.406;19.484;2023-09-18T02:29:40;9.27;;;5.63;;
19951;SDS011;10137;49.406;19.484;2023-09-18T02:32:08;8.53;;;5.40;;
19951;SDS011;10137;49.406;19.484;2023-09-18T02:34:39;7.00;;;5.17;;
19951;SDS011;10137;49.406;19.484;2023-09-18T02:37:07;7.37;;;5.20;;
19951;SDS011;10137;49.406;19.484;2023-09-18T02:39:35;8.70;;;5.77;;
19951;SDS011;10137;49.406;19.484;2023-09-18T02:42:04;7.53;;;5.27;;
19951;SDS011;10137;49.406;19.484;2023-09-18T02:44:32;8.83;;;6.20;;
19951;SDS011;10137;49.406;19.484;2023-09-18T02:47:05;9.27;;;6.10;;
19951;SDS011;10137;49.406;19.484;2023-09-18T02:49:36;6.60;;;5.17;;
19951;SDS011;10137;49.406;19.484;2023-09-18T02:52:04;9.37;;;5.90;;
19951;SDS011;10137;49.406;19.484;2023-09-18T02:54:33;10.77;;;5.90;;
19951;SDS011;10137;49.406;19.484;2023-09-18T02:57:01;9.23;;;5.27;;
19951;SDS011;10137;49.406;19.484;2023-09-18T02:59:32;8.90;;;5.63;;
19951;SDS011;10137;49.406;19.484;2023-09-18T03:02:01;6.60;;;5.03;;
19951;SDS011;10137;49.406;19.484;2023-09-18T03:04:30;9.30;;;5.27;;
19951;SDS011;10137;49.406;19.484;2023-09-18T03:06:59;8.97;;;5.53;;
19951;SDS011;10137;49.406;19.484;2023-09-18T03:09:27;8.33;;;5.83;;
19951;SDS011;10137;49.406;19.484;2023-09-18T03:11:55;7.20;;;5.33;;
19951;SDS011;10137;49.406;19.484;2023-09-18T03:14:23;8.07;;;5.53;;
19951;SDS011;10137;49.406;19.484;2023-09-18T03:16:54;9.50;;;5.87;;
19951;SDS011;10137;49.406;19.484;2023-09-18T03:19:28;8.60;;;5.77;;
19951;SDS011;10137;49.406;19.484;2023-09-18T03:21:56;8.10;;;5.83;;
19951;SDS011;10137;49.406;19.484;2023-09-18T03:24:24;8.07;;;5.50;;
19951;SDS011;10137;49.406;19.484;2023-09-18T03:26:53;13.67;;;7.23;;
19951;SDS011;10137;49.406;19.484;2023-09-18T03:29:23;9.60;;;6.87;;
19951;SDS011;10137;49.406;19.484;2023-09-18T03:31:52;13.10;;;7.67;;
19951;SDS011;10137;49.406;19.484;2023-09-18T03:34:26;11.30;;;7.90;;
19951;SDS011;10137;49.406;19.484;2023-09-18T03:36:54;15.83;;;9.10;;
19951;SDS011;10137;49.406;19.484;2023-09-18T03:39:23;16.23;;;9.00;;
19951;SDS011;10137;49.406;19.484;2023-09-18T03:41:54;13.37;;;9.20;;
19951;SDS011;10137;49.406;19.484;2023-09-18T03:44:22;15.07;;;9.23;;
19951;SDS011;10137;49.406;19.484;2023-09-18T03:46:53;18.30;;;8.33;;
19951;SDS011;10137;49.406;19.484;2023-09-18T03:49:23;9.97;;;8.00;;
19951;SDS011;10137;49.406;19.484;2023-09-18T03:51:55;17.60;;;9.20;;
19951;SDS011;10137;49.406;19.484;2023-09-18T03:54:24;13.73;;;8.77;;
19951;SDS011;10137;49.406;19.484;2023-09-18T03:56:54;11.83;;;8.57;;
19951;SDS011;10137;49.406;19.484;2023-09-18T03:59:23;14.80;;;8.70;;
19951;SDS011;10137;49.406;19.484;2023-09-18T04:01:54;14.67;;;8.63;;
19951;SDS011;10137;49.406;19.484;2023-09-18T04:04:23;14.17;;;9.50;;
19951;SDS011;10137;49.406;19.484;2023-09-18T04:06:59;13.87;;;8.97;;
19951;SDS011;10137;49.406;19.484;2023-09-18T04:09:27;14.23;;;9.27;;
19951;SDS011;10137;49.406;19.484;2023-09-18T04:11:55;15.00;;;7.97;;
19951;SDS011;10137;49.406;19.484;2023-09-18T04:14:23;14.63;;;7.87;;
19951;SDS011;10137;49.406;19.484;2023-09-18T04:16:54;13.97;;;7.90;;
19951;SDS011;10137;49.406;19.484;2023-09-18T04:19:26;14.50;;;8.70;;
19951;SDS011;10137;49.406;19.484;2023-09-18T04:21:56;18.37;;;9.10;;
19951;SDS011;10137;49.406;19.484;2023-09-18T04:24:25;16.53;;;8.57;;
19951;SDS011;10137;49.406;19.484;2023-09-18T04:26:53;13.10;;;7.80;;
19951;SDS011;10137;49.406;19.484;2023-09-18T04:29:24;29.57;;;8.20;;
19951;SDS011;10137;49.406;19.484;2023-09-18T04:31:52;12.60;;;8.73;;
19951;SDS011;10137;49.406;19.484;2023-09-18T04:34:20;16.93;;;7.87;;
19951;SDS011;10137;49.406;19.484;2023-09-18T04:36:48;20.93;;;8.23;;
19951;SDS011;10137;49.406;19.484;2023-09-18T04:39:17;23.30;;;8.83;;
19951;SDS011;10137;49.406;19.484;2023-09-18T04:41:46;31.93;;;8.00;;
19951;SDS011;10137;49.406;19.484;2023-09-18T04:44:15;24.43;;;7.90;;
19951;SDS011;10137;49.406;19.484;2023-09-18T04:46:43;14.10;;;8.07;;
19951;SDS011;10137;49.406;19.484;2023-09-18T04:49:12;18.20;;;8.03;;
19951;SDS011;10137;49.406;19.484;2023-09-18T04:51:41;13.63;;;8.77;;
19951;SDS011;10137;49.406;19.484;2023-09-18T04:54:10;17.07;;;8.60;;
19951;SDS011;10137;49.406;19.484;2023-09-18T04:56:40;12.90;;;8.17;;
19951;SDS011;10137;49.406;19.484;2023-09-18T04:59:08;12.90;;;8.30;;
19951;SDS011;10137;49.406;19.484;2023-09-18T05:01:35;13.13;;;8.77;;
19951;SDS011;10137;49.406;19.484;2023-09-18T05:04:02;15.53;;;8.80;;
19951;SDS011;10137;49.406;19.484;2023-09-18T05:06:31;23.87;;;8.53;;
19951;SDS011;10137;49.406;19.484;2023-09-18T05:08:59;20.60;;;9.33;;
19951;SDS011;10137;49.406;19.484;2023-09-18T05:11:27;17.87;;;8.83;;
19951;SDS011;10137;49.406;19.484;2023-09-18T05:14:00;29.63;;;9.90;;
19951;SDS011;10137;49.406;19.484;2023-09-18T05:16:28;18.10;;;9.33;;
19951;SDS011;10137;49.406;19.484;2023-09-18T05:18:56;29.33;;;10.23;;
19951;SDS011;10137;49.406;19.484;2023-09-18T05:21:25;25.70;;;9.70;;
19951;SDS011;10137;49.406;19.484;2023-09-18T05:23:53;22.37;;;10.40;;
19951;SDS011;10137;49.406;19.484;2023-09-18T05:26:24;20.83;;;10.47;;
19951;SDS011;10137;49.406;19.484;2023-09-18T05:28:56;23.23;;;10.00;;
19951;SDS011;10137;49.406;19.484;2023-09-18T05:31:29;22.10;;;10.10;;
19951;SDS011;10137;49.406;19.484;2023-09-18T05:33:56;16.97;;;9.73;;
19951;SDS011;10137;49.406;19.484;2023-09-18T05:36:26;25.00;;;9.80;;
19951;SDS011;10137;49.406;19.484;2023-09-18T05:38:54;30.50;;;10.23;;
19951;SDS011;10137;49.406;19.484;2023-09-18T05:41:22;16.00;;;10.10;;
19951;SDS011;10137;49.406;19.484;2023-09-18T05:43:53;24.13;;;10.10;;
19951;SDS011;10137;49.406;19.484;2023-09-18T05:46:21;20.57;;;9.67;;
19951;SDS011;10137;49.406;19.484;2023-09-18T05:48:55;18.03;;;10.43;;
19951;SDS011;10137;49.406;19.484;2023-09-18T05:51:24;20.53;;;9.50;;
19951;SDS011;10137;49.406;19.484;2023-09-18T05:53:56;41.47;;;9.50;;
19951;SDS011;10137;49.406;19.484;2023-09-18T05:56:24;30.73;;;10.03;;
19951;SDS011;10137;49.406;19.484;2023-09-18T05:58:55;13.70;;;9.23;;
19951;SDS011;10137;49.406;19.484;2023-09-18T06:01:26;22.73;;;9.90;;
19951;SDS011;10137;49.406;19.484;2023-09-18T06:04:00;37.30;;;9.83;;
19951;SDS011;10137;49.406;19.484;2023-09-18T06:06:31;23.60;;;10.13;;
19951;SDS011;10137;49.406;19.484;2023-09-18T06:08:59;20.20;;;9.03;;
19951;SDS011;10137;49.406;19.484;2023-09-18T06:11:28;15.47;;;9.57;;
19951;SDS011;10137;49.406;19.484;2023-09-18T06:13:56;14.60;;;9.63;;
19951;SDS011;10137;49.406;19.484;2023-09-18T06:16:23;22.93;;;11.13;;
19951;SDS011;10137;49.406;19.484;2023-09-18T06:18:53;14.87;;;9.00;;
19951;SDS011;10137;49.406;19.484;2023-09-18T06:21:26;13.50;;;8.03;;
19951;SDS011;10137;49.406;19.484;2023-09-18T06:23:58;11.63;;;7.50;;
19951;SDS011;10137;49.406;19.484;2023-09-18T06:26:26;19.77;;;9.40;;
19951;SDS011;10137;49.406;19.484;2023-09-18T06:28:54;21.20;;;8.70;;
19951;SDS011;10137;49.406;19.484;2023-09-18T06:31:22;14.00;;;8.90;;
19951;SDS011;10137;49.406;19.484;2023-09-18T06:33:49;16.07;;;8.97;;
19951;SDS011;10137;49.406;19.484;2023-09-18T06:36:19;14.53;;;8.43;;
19951;SDS011;10137;49.406;19.484;2023-09-18T06:38:48;16.27;;;8.23;;
19951;SDS011;10137;49.406;19.484;2023-09-18T06:41:16;23.80;;;11.63;;
19951;SDS011;10137;49.406;19.484;2023-09-18T06:43:45;29.33;;;11.03;;
19951;SDS011;10137;49.406;19.484;2023-09-18T06:46:15;18.10;;;10.43;;
19951;SDS011;10137;49.406;19.484;2023-09-18T06:48:43;23.07;;;10.97;;
19951;SDS011;10137;49.406;19.484;2023-09-18T06:51:15;29.90;;;12.60;;
19951;SDS011;10137;49.406;19.484;2023-09-18T06:53:43;22.43;;;9.23;;
19951;SDS011;10137;49.406;19.484;2023-09-18T06:56:13;14.47;;;9.10;;
19951;SDS011;10137;49.406;19.484;2023-09-18T06:58:44;22.07;;;9.90;;
19951;SDS011;10137;49.406;19.484;2023-09-18T07:01:14;15.13;;;8.70;;
19951;SDS011;10137;49.406;19.484;2023-09-18T07:03:45;14.73;;;7.90;;
19951;SDS011;10137;49.406;19.484;2023-09-18T07:06:16;10.13;;;7.43;;
19951;SDS011;10137;49.406;19.484;2023-09-18T07:08:46;11.23;;;8.00;;
19951;SDS011;10137;49.406;19.484;2023-09-18T07:11:17;12.70;;;8.43;;
19951;SDS011;10137;49.406;19.484;2023-09-18T07:13:44;12.97;;;7.13;;
19951;SDS011;10137;49.406;19.484;2023-09-18T07:16:12;9.87;;;7.40;;
19951;SDS011;10137;49.406;19.484;2023-09-18T07:18:41;9.50;;;7.17;;
19951;SDS011;10137;49.406;19.484;2023-09-18T07:21:09;9.73;;;7.50;;
19951;SDS011;10137;49.406;19.484;2023-09-18T07:23:39;15.97;;;8.93;;
19951;SDS011;10137;49.406;19.484;2023-09-18T07:26:07;8.93;;;6.60;;
19951;SDS011;10137;49.406;19.484;2023-09-18T07:28:37;9.53;;;7.20;;
19951;SDS011;10137;49.406;19.484;2023-09-18T07:31:06;11.63;;;7.50;;
19951;SDS011;10137;49.406;19.484;2023-09-18T07:33:35;9.03;;;6.77;;
19951;SDS011;10137;49.406;19.484;2023-09-18T07:36:03;8.53;;;6.60;;
19951;SDS011;10137;49.406;19.484;2023-09-18T07:38:31;10.53;;;7.30;;
19951;SDS011;10137;49.406;19.484;2023-09-18T07:41:00;8.10;;;6.43;;
19951;SDS011;10137;49.406;19.484;2023-09-18T07:43:31;11.33;;;7.20;;
19951;SDS011;10137;49.406;19.484;2023-09-18T07:46:01;9.63;;;6.67;;
19951;SDS011;10137;49.406;19.484;2023-09-18T07:48:30;9.90;;;7.27;;
19951;SDS011;10137;49.406;19.484;2023-09-18T07:50:59;11.47;;;7.47;;
19951;SDS011;10137;49.406;19.484;2023-09-18T07:53:27;8.67;;;6.20;;
19951;SDS011;10137;49.406;19.484;2023-09-18T07:55:58;8.77;;;6.97;;
19951;SDS011;10137;49.406;19.484;2023-09-18T07:58:27;9.43;;;7.50;;
19951;SDS011;10137;49.406;19.484;2023-09-18T08:00:56;8.23;;;6.43;;
19951;SDS011;10137;49.406;19.484;2023-09-18T08:03:31;8.00;;;6.13;;
19951;SDS011;10137;49.406;19.484;2023-09-18T08:06:00;12.17;;;7.20;;
19951;SDS011;10137;49.406;19.484;2023-09-18T08:08:30;9.10;;;6.43;;
19951;SDS011;10137;49.406;19.484;2023-09-18T08:11:06;12.93;;;6.67;;
19951;SDS011;10137;49.406;19.484;2023-09-18T08:13:37;11.60;;;5.77;;
19951;SDS011;10137;49.406;19.484;2023-09-18T08:16:09;9.93;;;5.63;;
19951;SDS011;10137;49.406;19.484;2023-09-18T08:18:39;8.20;;;5.50;;
19951;SDS011;10137;49.406;19.484;2023-09-18T08:21:07;6.67;;;5.37;;
19951;SDS011;10137;49.406;19.484;2023-09-18T08:23:36;6.80;;;5.20;;
19951;SDS011;10137;49.406;19.484;2023-09-18T08:26:04;6.82;;;5.60;;
19951;SDS011;10137;49.406;19.484;2023-09-18T08:28:34;9.38;;;5.55;;
19951;SDS011;10137;49.406;19.484;2023-09-18T08:31:05;6.22;;;5.28;;
19951;SDS011;10137;49.406;19.484;2023-09-18T08:33:33;9.73;;;5.97;;
19951;SDS011;10137;49.406;19.484;2023-09-18T08:36:04;6.35;;;5.38;;
19951;SDS011;10137;49.406;19.484;2023-09-18T08:38:31;8.65;;;4.95;;
19951;SDS011;10137;49.406;19.484;2023-09-18T08:41:00;5.53;;;4.63;;
19951;SDS011;10137;49.406;19.484;2023-09-18T08:43:29;5.95;;;5.20;;
19951;SDS011;10137;49.406;19.484;2023-09-18T08:45:59;8.40;;;5.15;;
19951;SDS011;10137;49.406;19.484;2023-09-18T08:48:29;6.13;;;5.53;;
19951;SDS011;10137;49.406;19.484;2023-09-18T08:51:04;6.90;;;4.30;;
19951;SDS011;10137;49.406;19.484;2023-09-18T08:53:34;6.13;;;5.00;;
19951;SDS011;10137;49.406;19.484;2023-09-18T08:56:04;5.78;;;5.18;;
19951;SDS011;10137;49.406;19.484;2023-09-18T08:58:32;6.03;;;5.15;;
19951;SDS011;10137;49.406;19.484;2023-09-18T09:01:06;8.55;;;5.03;;
19951;SDS011;10137;49.406;19.484;2023-09-18T09:03:36;7.85;;;5.22;;
19951;SDS011;10137;49.406;19.484;2023-09-18T09:06:11;9.02;;;5.25;;
19951;SDS011;10137;49.406;19.484;2023-09-18T09:08:43;7.20;;;4.90;;
19951;SDS011;10137;49.406;19.484;2023-09-18T09:11:13;8.23;;;4.35;;
19951;SDS011;10137;49.406;19.484;2023-09-18T09:13:42;7.32;;;4.70;;
19951;SDS011;10137;49.406;19.484;2023-09-18T09:16:13;11.25;;;4.07;;
19951;SDS011;10137;49.406;19.484;2023-09-18T09:18:53;8.05;;;4.40;;
19951;SDS011;10137;49.406;19.484;2023-09-18T09:21:41;5.07;;;4.30;;
19951;SDS011;10137;49.406;19.484;2023-09-18T09:24:10;22.58;;;5.53;;
19951;SDS011;10137;49.406;19.484;2023-09-18T09:26:39;4.57;;;3.80;;
19951;SDS011;10137;49.406;19.484;2023-09-18T09:31:50;4.90;;;4.15;;
19951;SDS011;10137;49.406;19.484;2023-09-18T09:34:26;5.05;;;4.18;;
19951;SDS011;10137;49.406;19.484;2023-09-18T09:36:59;4.32;;;3.70;;
19951;SDS011;10137;49.406;19.484;2023-09-18T09:39:30;6.70;;;3.92;;
19951;SDS011;10137;49.406;19.484;2023-09-18T09:41:59;8.93;;;4.55;;
19951;SDS011;10137;49.406;19.484;2023-09-18T09:44:31;6.20;;;3.72;;
19951;SDS011;10137;49.406;19.484;2023-09-18T09:46:59;6.63;;;4.57;;
19951;SDS011;10137;49.406;19.484;2023-09-18T09:49:30;5.22;;;4.28;;
19951;SDS011;10137;49.406;19.484;2023-09-18T09:52:18;8.05;;;4.60;;
19951;SDS011;10137;49.406;19.484;2023-09-18T09:54:49;10.43;;;5.00;;
19951;SDS011;10137;49.406;19.484;2023-09-18T09:57:19;4.78;;;4.03;;
19951;SDS011;10137;49.406;19.484;2023-09-18T09:59:49;6.40;;;4.32;;
19951;SDS011;10137;49.406;19.484;2023-09-18T10:02:17;8.82;;;4.65;;
19951;SDS011;10137;49.406;19.484;2023-09-18T10:04:49;7.30;;;4.70;;
19951;SDS011;10137;49.406;19.484;2023-09-18T10:07:25;6.15;;;4.93;;
19951;SDS011;10137;49.406;19.484;2023-09-18T10:09:54;8.40;;;4.75;;
19951;SDS011;10137;49.406;19.484;2023-09-18T10:12:25;6.90;;;4.78;;
19951;SDS011;10137;49.406;19.484;2023-09-18T10:14:54;6.68;;;4.50;;
19951;SDS011;10137;49.406;19.484;2023-09-18T10:17:24;9.57;;;4.40;;
19951;SDS011;10137;49.406;19.484;2023-09-18T10:19:58;5.97;;;4.10;;
19951;SDS011;10137;49.406;19.484;2023-09-18T10:22:48;7.45;;;4.50;;
19951;SDS011;10137;49.406;19.484;2023-09-18T10:25:21;9.85;;;4.85;;
19951;SDS011;10137;49.406;19.484;2023-09-18T10:27:51;21.20;;;5.28;;
19951;SDS011;10137;49.406;19.484;2023-09-18T10:30:24;6.57;;;4.55;;
19951;SDS011;10137;49.406;19.484;2023-09-18T10:32:54;6.30;;;4.50;;
19951;SDS011;10137;49.406;19.484;2023-09-18T10:35:24;4.40;;;3.80;;
19951;SDS011;10137;49.406;19.484;2023-09-18T10:37:57;5.43;;;4.03;;
19951;SDS011;10137;49.406;19.484;2023-09-18T10:40:30;7.03;;;4.13;;
19951;SDS011;10137;49.406;19.484;2023-09-18T10:43:00;5.47;;;3.90;;
19951;SDS011;10137;49.406;19.484;2023-09-18T10:45:36;7.18;;;3.95;;
19951;SDS011;10137;49.406;19.484;2023-09-18T10:48:06;7.75;;;4.35;;
19951;SDS011;10137;49.406;19.484;2023-09-18T10:50:36;5.25;;;4.50;;
19951;SDS011;10137;49.406;19.484;2023-09-18T10:53:07;5.38;;;3.97;;
19951;SDS011;10137;49.406;19.484;2023-09-18T10:55:35;5.15;;;4.00;;
19951;SDS011;10137;49.406;19.484;2023-09-18T10:58:10;5.10;;;3.47;;
19951;SDS011;10137;49.406;19.484;2023-09-18T11:00:39;4.63;;;3.60;;
19951;SDS011;10137;49.406;19.484;2023-09-18T11:03:13;7.47;;;4.50;;
19951;SDS011;10137;49.406;19.484;2023-09-18T11:05:43;8.52;;;3.97;;
19951;SDS011;10137;49.406;19.484;2023-09-18T11:08:26;6.38;;;4.25;;
19951;SDS011;10137;49.406;19.484;2023-09-18T11:11:00;4.25;;;3.67;;
19951;SDS011;10137;49.406;19.484;2023-09-18T11:13:37;5.63;;;4.03;;
19951;SDS011;10137;49.406;19.484;2023-09-18T11:16:18;5.97;;;3.90;;
19951;SDS011;10137;49.406;19.484;2023-09-18T11:19:10;6.32;;;4.07;;
19951;SDS011;10137;49.406;19.484;2023-09-18T11:21:43;4.30;;;3.90;;
19951;SDS011;10137;49.406;19.484;2023-09-18T11:24:21;7.28;;;3.80;;
19951;SDS011;10137;49.406;19.484;2023-09-18T11:26:51;6.30;;;4.13;;
19951;SDS011;10137;49.406;19.484;2023-09-18T11:29:22;4.88;;;4.00;;
19951;SDS011;10137;49.406;19.484;2023-09-18T11:31:53;5.50;;;4.00;;
19951;SDS011;10137;49.406;19.484;2023-09-18T11:34:24;6.68;;;3.95;;
19951;SDS011;10137;49.406;19.484;2023-09-18T11:36:55;5.47;;;3.72;;
19951;SDS011;10137;49.406;19.484;2023-09-18T11:39:35;5.28;;;3.63;;
19951;SDS011;10137;49.406;19.484;2023-09-18T11:42:08;6.43;;;3.97;;
19951;SDS011;10137;49.406;19.484;2023-09-18T11:44:37;5.53;;;3.72;;
19951;SDS011;10137;49.406;19.484;2023-09-18T11:47:14;6.20;;;4.28;;
19951;SDS011;10137;49.406;19.484;2023-09-18T11:49:48;7.38;;;4.03;;
19951;SDS011;10137;49.406;19.484;2023-09-18T11:52:20;5.30;;;3.97;;
19951;SDS011;10137;49.406;19.484;2023-09-18T11:54:55;5.25;;;3.65;;
19951;SDS011;10137;49.406;19.484;2023-09-18T11:57:24;8.85;;;3.88;;
19951;SDS011;10137;49.406;19.484;2023-09-18T11:59:55;6.05;;;4.13;;
19951;SDS011;10137;49.406;19.484;2023-09-18T12:02:26;4.75;;;3.75;;
19951;SDS011;10137;49.406;19.484;2023-09-18T12:05:05;7.60;;;3.78;;
19951;SDS011;10137;49.406;19.484;2023-09-18T12:07:37;4.32;;;3.67;;
19951;SDS011;10137;49.406;19.484;2023-09-18T12:10:19;5.22;;;3.60;;
19951;SDS011;10137;49.406;19.484;2023-09-18T12:12:47;5.15;;;3.67;;
19951;SDS011;10137;49.406;19.484;2023-09-18T12:15:18;5.90;;;4.00;;
19951;SDS011;10137;49.406;19.484;2023-09-18T12:17:47;5.50;;;3.40;;
19951;SDS011;10137;49.406;19.484;2023-09-18T12:20:15;6.10;;;3.50;;
19951;SDS011;10137;49.406;19.484;2023-09-18T12:22:49;4.43;;;3.80;;
19951;SDS011;10137;49.406;19.484;2023-09-18T12:25:25;5.53;;;4.25;;
19951;SDS011;10137;49.406;19.484;2023-09-18T12:27:53;5.15;;;3.72;;
19951;SDS011;10137;49.406;19.484;2023-09-18T12:30:22;6.10;;;4.05;;
19951;SDS011;10137;49.406;19.484;2023-09-18T12:32:52;5.03;;;3.85;;
19951;SDS011;10137;49.406;19.484;2023-09-18T12:35:25;6.13;;;3.58;;
19951;SDS011;10137;49.406;19.484;2023-09-18T12:37:55;5.22;;;3.95;;
19951;SDS011;10137;49.406;19.484;2023-09-18T12:40:27;3.90;;;3.30;;
19951;SDS011;10137;49.406;19.484;2023-09-18T12:42:58;4.55;;;3.63;;
19951;SDS011;10137;49.406;19.484;2023-09-18T12:45:27;3.90;;;3.50;;
19951;SDS011;10137;49.406;19.484;2023-09-18T12:47:56;5.47;;;3.30;;
19951;SDS011;10137;49.406;19.484;2023-09-18T12:50:24;5.40;;;3.67;;
19951;SDS011;10137;49.406;19.484;2023-09-18T12:53:06;5.72;;;3.75;;
19951;SDS011;10137;49.406;19.484;2023-09-18T12:55:39;5.07;;;3.53;;
19951;SDS011;10137;49.406;19.484;2023-09-18T12:58:10;4.65;;;3.63;;
19951;SDS011;10137;49.406;19.484;2023-09-18T13:00:44;5.38;;;3.80;;
19951;SDS011;10137;49.406;19.484;2023-09-18T13:03:13;6.22;;;3.35;;
19951;SDS011;10137;49.406;19.484;2023-09-18T13:05:41;6.25;;;3.50;;
19951;SDS011;10137;49.406;19.484;2023-09-18T13:08:10;6.20;;;3.50;;
19951;SDS011;10137;49.406;19.484;2023-09-18T13:10:46;6.57;;;3.53;;
19951;SDS011;10137;49.406;19.484;2023-09-18T13:13:19;4.78;;;3.78;;
19951;SDS011;10137;49.406;19.484;2023-09-18T13:15:49;5.65;;;3.70;;
19951;SDS011;10137;49.406;19.484;2023-09-18T13:18:17;4.43;;;3.60;;
19951;SDS011;10137;49.406;19.484;2023-09-18T13:20:45;9.38;;;3.53;;
19951;SDS011;10137;49.406;19.484;2023-09-18T13:23:13;4.53;;;3.45;;
19951;SDS011;10137;49.406;19.484;2023-09-18T13:25:41;5.65;;;4.07;;
19951;SDS011;10137;49.406;19.484;2023-09-18T13:28:13;6.57;;;4.00;;
19951;SDS011;10137;49.406;19.484;2023-09-18T13:30:41;5.03;;;3.83;;
19951;SDS011;10137;49.406;19.484;2023-09-18T13:33:09;4.57;;;4.07;;
19951;SDS011;10137;49.406;19.484;2023-09-18T13:35:40;8.52;;;4.30;;
19951;SDS011;10137;49.406;19.484;2023-09-18T13:38:10;5.70;;;4.40;;
19951;SDS011;10137;49.406;19.484;2023-09-18T13:40:40;5.40;;;4.40;;
19951;SDS011;10137;49.406;19.484;2023-09-18T13:43:09;6.07;;;4.15;;
19951;SDS011;10137;49.406;19.484;2023-09-18T13:45:51;5.40;;;4.57;;
19951;SDS011;10137;49.406;19.484;2023-09-18T13:48:21;7.30;;;4.72;;
19951;SDS011;10137;49.406;19.484;2023-09-18T13:50:49;9.50;;;4.43;;
19951;SDS011;10137;49.406;19.484;2023-09-18T13:53:19;6.63;;;4.78;;
19951;SDS011;10137;49.406;19.484;2023-09-18T13:55:48;10.30;;;4.78;;
19951;SDS011;10137;49.406;19.484;2023-09-18T13:58:16;5.47;;;4.78;;
19951;SDS011;10137;49.406;19.484;2023-09-18T14:00:49;6.88;;;5.45;;
19951;SDS011;10137;49.406;19.484;2023-09-18T14:03:17;7.82;;;5.25;;
19951;SDS011;10137;49.406;19.484;2023-09-18T14:05:47;10.27;;;5.68;;
19951;SDS011;10137;49.406;19.484;2023-09-18T14:08:15;5.57;;;5.00;;
19951;SDS011;10137;49.406;19.484;2023-09-18T14:10:46;6.88;;;5.47;;
19951;SDS011;10137;49.406;19.484;2023-09-18T14:13:15;8.25;;;5.65;;
19951;SDS011;10137;49.406;19.484;2023-09-18T14:15:44;6.20;;;5.60;;
19951;SDS011;10137;49.406;19.484;2023-09-18T14:18:16;6.07;;;5.28;;
19951;SDS011;10137;49.406;19.484;2023-09-18T14:20:48;11.60;;;5.32;;
19951;SDS011;10137;49.406;19.484;2023-09-18T14:23:19;8.23;;;5.40;;
19951;SDS011;10137;49.406;19.484;2023-09-18T14:25:50;7.80;;;5.95;;
19951;SDS011;10137;49.406;19.484;2023-09-18T14:28:18;15.20;;;6.32;;
19951;SDS011;10137;49.406;19.484;2023-09-18T14:30:47;9.57;;;5.80;;
19951;SDS011;10137;49.406;19.484;2023-09-18T14:33:21;6.55;;;5.18;;
19951;SDS011;10137;49.406;19.484;2023-09-18T14:35:49;6.82;;;5.55;;
19951;SDS011;10137;49.406;19.484;2023-09-18T14:38:21;7.20;;;5.38;;
19951;SDS011;10137;49.406;19.484;2023-09-18T14:40:52;10.63;;;5.95;;
19951;SDS011;10137;49.406;19.484;2023-09-18T14:43:26;7.25;;;5.45;;
19951;SDS011;10137;49.406;19.484;2023-09-18T14:45:55;8.20;;;6.25;;
19951;SDS011;10137;49.406;19.484;2023-09-18T14:48:26;6.32;;;5.35;;
19951;SDS011;10137;49.406;19.484;2023-09-18T14:50:55;6.90;;;5.80;;